Time;durP1;ratioP1;P1;durP2;ratioP2;P2;SDS_P1;SDS_P2;PMS_P1;PMS_P2;Temp;Humidity;BMP_temperature;BMP_pressure;BME280_temperature;BME280_humidity;BME280_pressure;Samples;Min_cycle;Max_cycle;Signal;HPM_P1;HPM_P2
2022/01/13 00:01:43;;;;;;;26.73;12.45;;;;;;;;;;5128868;27;20015;-46
2022/01/13 00:04:10;;;;;;;18.15;13.55;;;;;;;;;;5129218;27;20688;-49
2022/01/13 00:06:36;;;;;;;13.93;12.13;;;;;;;;;;5129468;27;20018;-47
2022/01/13 00:09:03;;;;;;;14.73;12.20;;;;;;;;;;5129221;27;20023;-48
2022/01/13 00:11:28;;;;;;;25.58;14.85;;;;;;;;;;5128241;27;20074;-50
2022/01/13 00:16:41;;;;;;;22.50;13.00;;;;;;;;;;5129014;27;20079;-45
2022/01/13 00:21:47;;;;;;;15.98;13.43;;;;;;;;;;5125815;27;20031;-43
2022/01/13 00:24:13;;;;;;;15.55;11.80;;;;;;;;;;5125757;27;20527;-49
2022/01/13 00:26:39;;;;;;;8.88;7.50;;;;;;;;;;5126704;27;20022;-47
2022/01/13 00:29:05;;;;;;;16.83;11.10;;;;;;;;;;5125283;27;20135;-49
2022/01/13 00:31:32;;;;;;;10.52;9.10;;;;;;;;;;5126764;27;20023;-46
2022/01/13 00:33:58;;;;;;;10.20;5.93;;;;;;;;;;5124769;27;20553;-47
2022/01/13 00:36:24;;;;;;;8.23;5.55;;;;;;;;;;5125818;27;20482;-48
2022/01/13 00:38:50;;;;;;;11.10;5.82;;;;;;;;;;5125466;27;20154;-48
2022/01/13 00:41:15;;;;;;;19.60;10.93;;;;;;;;;;5126873;27;20027;-44
2022/01/13 00:43:42;;;;;;;13.10;8.65;;;;;;;;;;5126515;27;20525;-47
2022/01/13 00:46:09;;;;;;;16.15;7.10;;;;;;;;;;5126013;27;20035;-47
2022/01/13 00:48:34;;;;;;;24.60;8.07;;;;;;;;;;5125372;27;20023;-48
2022/01/13 00:50:59;;;;;;;17.75;10.73;;;;;;;;;;5124585;27;20027;-48
2022/01/13 00:53:25;;;;;;;14.38;9.55;;;;;;;;;;5126438;27;20106;-44
2022/01/13 00:56:00;;;;;;;18.70;12.73;;;;;;;;;;5125638;27;20026;-47
2022/01/13 00:58:27;;;;;;;20.20;12.20;;;;;;;;;;5125024;27;20131;-49
2022/01/13 01:00:52;;;;;;;14.88;9.75;;;;;;;;;;5124856;27;20269;-44
2022/01/13 01:03:18;;;;;;;24.58;12.02;;;;;;;;;;5125758;27;20027;-46
2022/01/13 01:05:43;;;;;;;29.13;14.00;;;;;;;;;;5126119;27;20033;-46
2022/01/13 01:08:10;;;;;;;27.13;16.52;;;;;;;;;;5125413;27;20023;-50
2022/01/13 01:10:36;;;;;;;44.53;19.27;;;;;;;;;;5125637;27;20023;-44
2022/01/13 01:13:10;;;;;;;20.85;12.68;;;;;;;;;;5125916;27;20089;-43
2022/01/13 01:15:36;;;;;;;24.30;13.15;;;;;;;;;;5125233;27;20069;-50
2022/01/13 01:18:11;;;;;;;12.15;8.43;;;;;;;;;;5126044;27;20556;-44
2022/01/13 01:20:47;;;;;;;11.43;6.93;;;;;;;;;;5126292;27;20095;-45
2022/01/13 01:23:17;;;;;;;9.18;7.25;;;;;;;;;;5126510;27;20023;-47
2022/01/13 01:26:04;;;;;;;21.17;10.73;;;;;;;;;;5127310;27;20148;-47
2022/01/13 01:28:40;;;;;;;20.75;8.25;;;;;;;;;;5127320;27;20042;-46
2022/01/13 01:31:05;;;;;;;16.88;9.80;;;;;;;;;;5126780;27;20038;-45
2022/01/13 01:33:32;;;;;;;17.85;9.07;;;;;;;;;;5125591;27;20023;-47
2022/01/13 01:35:57;;;;;;;12.20;6.88;;;;;;;;;;5125031;27;20019;-47
2022/01/13 01:38:23;;;;;;;12.57;7.97;;;;;;;;;;5126912;27;20032;-47
2022/01/13 01:40:48;;;;;;;13.07;7.63;;;;;;;;;;5127281;27;20022;-48
2022/01/13 01:43:14;;;;;;;11.05;7.40;;;;;;;;;;5125972;27;20023;-50
2022/01/13 01:45:44;;;;;;;10.05;7.07;;;;;;;;;;5126611;27;20027;-45
2022/01/13 01:48:11;;;;;;;10.75;8.25;;;;;;;;;;5125699;27;20102;-49
2022/01/13 01:50:38;;;;;;;45.28;41.58;;;;;;;;;;5127374;27;20030;-48
2022/01/13 01:53:04;;;;;;;19.20;11.63;;;;;;;;;;5127229;27;20034;-45
2022/01/13 01:55:29;;;;;;;12.50;10.32;;;;;;;;;;5123862;27;20678;-48
2022/01/13 01:57:54;;;;;;;15.52;10.57;;;;;;;;;;5124950;27;20053;-48
2022/01/13 02:00:21;;;;;;;15.65;9.73;;;;;;;;;;5127038;27;20071;-48
2022/01/13 02:02:46;;;;;;;15.60;8.80;;;;;;;;;;5125487;27;20714;-44
2022/01/13 02:05:12;;;;;;;21.65;11.85;;;;;;;;;;5126964;27;20084;-46
2022/01/13 02:07:38;;;;;;;12.95;8.85;;;;;;;;;;5126910;27;20019;-44
2022/01/13 02:10:04;;;;;;;19.45;9.00;;;;;;;;;;5126736;27;20400;-45
2022/01/13 02:12:34;;;;;;;18.48;10.70;;;;;;;;;;5127390;28;20023;-50
2022/01/13 02:17:39;;;;;;;29.77;18.33;;;;;;;;;;5127140;28;20530;-50
2022/01/13 02:20:05;;;;;;;24.48;15.38;;;;;;;;;;5124559;28;20019;-49
2022/01/13 02:22:30;;;;;;;26.65;13.43;;;;;;;;;;5126027;27;20045;-48
2022/01/13 02:24:56;;;;;;;17.65;11.40;;;;;;;;;;5126892;27;20192;-46
2022/01/13 02:27:21;;;;;;;17.63;9.23;;;;;;;;;;5127113;28;20034;-46
2022/01/13 02:29:47;;;;;;;19.35;9.77;;;;;;;;;;5126478;28;20031;-47
2022/01/13 02:32:18;;;;;;;16.42;9.32;;;;;;;;;;5126478;28;20027;-44
2022/01/13 02:34:43;;;;;;;15.18;8.23;;;;;;;;;;5126388;28;20019;-45
2022/01/13 02:37:09;;;;;;;17.98;7.53;;;;;;;;;;5126388;28;20030;-44
2022/01/13 02:39:34;;;;;;;13.80;6.43;;;;;;;;;;5126527;28;20111;-46
2022/01/13 02:42:00;;;;;;;8.93;6.40;;;;;;;;;;5127232;28;20489;-44
2022/01/13 02:44:26;;;;;;;17.02;11.18;;;;;;;;;;5125855;27;20072;-46
2022/01/13 02:49:18;;;;;;;10.27;6.68;;;;;;;;;;5126897;28;20393;-46
2022/01/13 02:51:44;;;;;;;7.95;4.55;;;;;;;;;;5126217;27;20118;-45
2022/01/13 02:54:10;;;;;;;11.93;5.07;;;;;;;;;;5131405;27;20026;-50
2022/01/13 02:56:36;;;;;;;9.25;5.13;;;;;;;;;;5130889;27;20022;-44
2022/01/13 02:59:02;;;;;;;12.93;5.97;;;;;;;;;;5129303;27;20094;-48
2022/01/13 03:01:28;;;;;;;9.93;4.30;;;;;;;;;;5130785;27;20027;-45
2022/01/13 03:03:54;;;;;;;6.15;4.30;;;;;;;;;;5129526;27;20027;-44
2022/01/13 03:06:23;;;;;;;9.77;4.13;;;;;;;;;;5130268;27;20038;-44
2022/01/13 03:08:50;;;;;;;15.18;4.75;;;;;;;;;;5130325;27;20045;-47
2022/01/13 03:11:15;;;;;;;10.13;6.03;;;;;;;;;;5129726;27;20019;-50
2022/01/13 03:13:41;;;;;;;10.52;5.18;;;;;;;;;;5130775;27;20011;-47
2022/01/13 03:16:07;;;;;;;12.32;5.80;;;;;;;;;;5128822;27;20034;-49
2022/01/13 03:18:32;;;;;;;9.27;5.53;;;;;;;;;;5130147;27;20023;-46
2022/01/13 03:20:58;;;;;;;11.13;5.38;;;;;;;;;;5129578;27;20043;-48
2022/01/13 03:23:23;;;;;;;11.10;6.05;;;;;;;;;;5130149;27;20469;-48
2022/01/13 03:25:48;;;;;;;6.80;5.32;;;;;;;;;;5129840;27;20027;-48
2022/01/13 03:28:28;;;;;;;8.07;4.93;;;;;;;;;;5130134;27;20166;-45
2022/01/13 03:30:54;;;;;;;8.57;4.68;;;;;;;;;;5128691;27;20050;-48
2022/01/13 03:33:19;;;;;;;8.98;4.85;;;;;;;;;;5130191;27;20170;-47
2022/01/13 03:35:44;;;;;;;5.05;3.70;;;;;;;;;;5128835;27;20019;-44
2022/01/13 03:38:09;;;;;;;7.57;4.38;;;;;;;;;;5128913;27;20011;-43
2022/01/13 03:40:36;;;;;;;5.47;3.25;;;;;;;;;;5129289;27;20558;-45
2022/01/13 03:43:01;;;;;;;10.90;6.13;;;;;;;;;;5128339;27;20019;-45
2022/01/13 03:45:27;;;;;;;6.60;4.68;;;;;;;;;;5129795;27;20381;-47
2022/01/13 03:47:53;;;;;;;8.27;5.63;;;;;;;;;;5129268;27;20031;-44
2022/01/13 03:50:18;;;;;;;14.30;5.57;;;;;;;;;;5128779;27;20077;-44
2022/01/13 03:53:01;;;;;;;11.60;4.47;;;;;;;;;;5128169;27;20026;-45
2022/01/13 03:55:36;;;;;;;9.68;3.58;;;;;;;;;;5125861;27;20025;-47
2022/01/13 03:58:19;;;;;;;9.98;3.40;;;;;;;;;;5126844;27;20022;-45
2022/01/13 04:01:03;;;;;;;7.07;4.65;;;;;;;;;;5127183;27;20019;-47
2022/01/13 04:03:29;;;;;;;7.43;3.53;;;;;;;;;;5128284;27;20228;-45
2022/01/13 04:06:03;;;;;;;11.32;6.07;;;;;;;;;;5127096;27;20514;-49
2022/01/13 04:08:29;;;;;;;10.80;6.05;;;;;;;;;;5127788;27;20015;-47
2022/01/13 04:10:57;;;;;;;8.88;6.03;;;;;;;;;;5126804;27;20522;-45
2022/01/13 04:13:43;;;;;;;5.97;4.45;;;;;;;;;;5128049;27;20098;-47
2022/01/13 04:16:08;;;;;;;5.75;4.05;;;;;;;;;;5128016;27;20058;-48
2022/01/13 04:18:33;;;;;;;7.25;4.97;;;;;;;;;;5125870;27;20485;-44
2022/01/13 04:21:00;;;;;;;8.18;4.28;;;;;;;;;;5126976;27;20047;-50
2022/01/13 04:23:25;;;;;;;4.68;3.83;;;;;;;;;;5127399;27;20038;-45
2022/01/13 04:25:50;;;;;;;7.32;2.92;;;;;;;;;;5127642;27;20023;-47
2022/01/13 04:28:16;;;;;;;4.63;3.33;;;;;;;;;;5127953;27;20023;-45
2022/01/13 04:33:07;;;;;;;12.38;3.83;;;;;;;;;;5126741;27;20026;-45
2022/01/13 04:35:32;;;;;;;5.97;3.42;;;;;;;;;;5127743;27;20027;-48
2022/01/13 04:37:58;;;;;;;10.48;4.03;;;;;;;;;;5128471;27;20015;-44
2022/01/13 04:40:23;;;;;;;13.82;4.10;;;;;;;;;;5126759;27;20103;-49
2022/01/13 04:42:53;;;;;;;3.53;2.30;;;;;;;;;;5127478;27;20030;-46
2022/01/13 04:45:19;;;;;;;11.20;3.65;;;;;;;;;;5127375;27;20023;-45
2022/01/13 04:47:47;;;;;;;12.77;5.13;;;;;;;;;;5127766;27;20034;-45
2022/01/13 04:50:12;;;;;;;11.57;3.53;;;;;;;;;;5127041;27;20019;-48
2022/01/13 04:52:37;;;;;;;12.27;4.88;;;;;;;;;;5127098;27;20034;-44
2022/01/13 04:55:09;;;;;;;5.65;3.00;;;;;;;;;;5126870;27;20026;-47
2022/01/13 04:57:34;;;;;;;5.93;2.75;;;;;;;;;;5125857;27;20015;-45
2022/01/13 05:00:00;;;;;;;11.90;3.78;;;;;;;;;;5125578;27;20611;-47
2022/01/13 05:02:25;;;;;;;7.10;3.10;;;;;;;;;;5127480;27;20134;-44
2022/01/13 05:04:50;;;;;;;4.57;3.13;;;;;;;;;;5127688;27;20026;-49
2022/01/13 05:07:16;;;;;;;4.15;2.75;;;;;;;;;;5127060;27;20034;-47
2022/01/13 05:09:41;;;;;;;4.43;3.10;;;;;;;;;;5125932;27;20096;-48
2022/01/13 05:12:06;;;;;;;4.75;2.70;;;;;;;;;;5126816;27;20034;-50
2022/01/13 05:14:32;;;;;;;6.93;3.85;;;;;;;;;;5127536;27;20050;-45
2022/01/13 05:17:08;;;;;;;8.85;3.17;;;;;;;;;;5125227;27;20430;-45
2022/01/13 05:19:42;;;;;;;12.45;4.13;;;;;;;;;;5127410;27;20015;-47
2022/01/13 05:24:38;;;;;;;5.07;3.83;;;;;;;;;;5126938;27;20063;-45
2022/01/13 05:27:04;;;;;;;9.27;4.00;;;;;;;;;;5126705;27;20634;-48
2022/01/13 05:29:29;;;;;;;7.57;5.20;;;;;;;;;;5125820;27;20836;-45
2022/01/13 05:31:55;;;;;;;4.82;3.63;;;;;;;;;;5126403;27;20027;-47
2022/01/13 05:34:20;;;;;;;11.88;5.22;;;;;;;;;;5126660;27;20019;-44
2022/01/13 05:36:45;;;;;;;5.38;2.95;;;;;;;;;;5126365;27;20170;-45
2022/01/13 05:39:11;;;;;;;9.93;4.40;;;;;;;;;;5126752;27;20385;-44
2022/01/13 05:41:37;;;;;;;13.30;4.47;;;;;;;;;;5125345;27;20433;-46
2022/01/13 05:44:02;;;;;;;5.18;3.42;;;;;;;;;;5125572;27;20046;-50
2022/01/13 05:46:27;;;;;;;7.97;4.18;;;;;;;;;;5125479;27;20507;-46
2022/01/13 05:48:56;;;;;;;7.25;3.75;;;;;;;;;;5126342;27;20018;-48
2022/01/13 05:51:22;;;;;;;9.30;3.10;;;;;;;;;;5125138;27;20026;-46
2022/01/13 05:53:48;;;;;;;19.23;6.78;;;;;;;;;;5126333;27;20049;-49
2022/01/13 05:56:13;;;;;;;6.82;3.92;;;;;;;;;;5126849;27;20219;-45
2022/01/13 05:58:39;;;;;;;6.47;4.88;;;;;;;;;;5125157;27;20545;-46
2022/01/13 06:01:04;;;;;;;8.77;4.63;;;;;;;;;;5126432;27;20027;-47
2022/01/13 06:03:30;;;;;;;17.38;5.53;;;;;;;;;;5122897;27;20027;-48
2022/01/13 06:05:56;;;;;;;8.15;5.05;;;;;;;;;;5126515;27;20027;-44
2022/01/13 06:08:21;;;;;;;8.73;6.88;;;;;;;;;;5125455;27;20507;-43
2022/01/13 06:10:47;;;;;;;6.05;4.63;;;;;;;;;;5107088;28;20031;-47
2022/01/13 06:13:13;;;;;;;6.03;3.97;;;;;;;;;;5125657;28;20159;-50
2022/01/13 06:15:38;;;;;;;6.38;4.25;;;;;;;;;;5126685;28;20084;-47
2022/01/13 06:18:04;;;;;;;7.43;4.18;;;;;;;;;;5125983;28;20077;-48
2022/01/13 06:20:29;;;;;;;9.93;5.18;;;;;;;;;;5126600;28;20539;-50
2022/01/13 06:22:55;;;;;;;7.05;3.60;;;;;;;;;;5126553;28;20024;-47
2022/01/13 06:25:20;;;;;;;12.38;4.03;;;;;;;;;;5125666;28;20027;-44
2022/01/13 06:27:46;;;;;;;4.63;2.83;;;;;;;;;;5126039;27;20015;-47
2022/01/13 06:30:14;;;;;;;6.07;4.28;;;;;;;;;;5129776;27;20062;-46
2022/01/13 06:32:39;;;;;;;9.68;4.45;;;;;;;;;;5129423;27;20026;-44
2022/01/13 06:35:05;;;;;;;12.95;4.68;;;;;;;;;;5126520;27;20019;-46
2022/01/13 06:37:30;;;;;;;6.72;4.13;;;;;;;;;;5129350;27;20068;-48
2022/01/13 06:39:55;;;;;;;8.60;4.28;;;;;;;;;;5129040;27;20100;-50
2022/01/13 06:42:21;;;;;;;12.15;3.88;;;;;;;;;;5127161;27;20145;-43
2022/01/13 06:44:46;;;;;;;8.18;4.07;;;;;;;;;;5127929;27;20125;-44
2022/01/13 06:47:12;;;;;;;15.27;10.65;;;;;;;;;;5127908;27;20532;-45
2022/01/13 06:49:39;;;;;;;9.55;8.60;;;;;;;;;;5128700;27;20385;-44
2022/01/13 06:52:04;;;;;;;14.93;9.10;;;;;;;;;;5128276;27;20016;-44
2022/01/13 06:54:30;;;;;;;14.85;9.30;;;;;;;;;;5128423;27;20011;-44
2022/01/13 06:56:55;;;;;;;13.57;7.65;;;;;;;;;;5126947;27;20649;-45
2022/01/13 06:59:21;;;;;;;25.08;19.92;;;;;;;;;;5127927;27;20110;-48
2022/01/13 07:01:47;;;;;;;18.40;10.00;;;;;;;;;;5129103;27;20015;-74
2022/01/13 07:04:14;;;;;;;23.38;15.32;;;;;;;;;;5129000;27;20398;-70
2022/01/13 07:06:40;;;;;;;23.38;16.58;;;;;;;;;;5129227;27;20023;-71
2022/01/13 07:09:07;;;;;;;29.55;10.13;;;;;;;;;;5129710;27;20023;-69
2022/01/13 07:11:33;;;;;;;7.72;5.97;;;;;;;;;;5130489;27;20160;-70
2022/01/13 07:13:58;;;;;;;11.52;7.15;;;;;;;;;;5127901;27;20098;-71
2022/01/13 07:16:24;;;;;;;13.00;7.25;;;;;;;;;;5127919;27;20037;-68
2022/01/13 07:18:49;;;;;;;10.57;5.70;;;;;;;;;;5130356;27;20015;-71
2022/01/13 07:21:16;;;;;;;15.93;6.28;;;;;;;;;;5129176;27;20557;-71
2022/01/13 07:23:42;;;;;;;14.55;9.80;;;;;;;;;;5125841;28;20015;-71
2022/01/13 07:26:07;;;;;;;31.27;19.23;;;;;;;;;;5124075;28;20432;-70
2022/01/13 07:28:33;;;;;;;16.98;13.80;;;;;;;;;;5123218;28;20018;-70
2022/01/13 07:30:58;;;;;;;16.17;6.65;;;;;;;;;;5127835;28;20027;-70
2022/01/13 07:33:24;;;;;;;24.98;14.77;;;;;;;;;;5127070;27;20015;-69
2022/01/13 07:35:49;;;;;;;28.13;11.98;;;;;;;;;;5128589;28;20382;-71
2022/01/13 07:38:15;;;;;;;20.10;15.43;;;;;;;;;;5128081;27;20050;-69
2022/01/13 07:40:40;;;;;;;18.00;16.15;;;;;;;;;;5106762;28;20557;-71
2022/01/13 07:43:06;;;;;;;18.65;16.58;;;;;;;;;;5128446;28;20406;-68
2022/01/13 07:45:31;;;;;;;23.83;16.23;;;;;;;;;;5128344;27;20016;-68
2022/01/13 07:47:56;;;;;;;50.17;27.38;;;;;;;;;;5127854;28;20517;-71
2022/01/13 07:50:22;;;;;;;39.70;19.60;;;;;;;;;;5127486;28;20079;-72
2022/01/13 07:52:47;;;;;;;23.00;20.23;;;;;;;;;;5126563;28;20019;-71
2022/01/13 07:55:12;;;;;;;32.03;28.48;;;;;;;;;;5127782;28;20019;-73
2022/01/13 07:57:38;;;;;;;53.00;47.28;;;;;;;;;;5127581;27;20019;-74
2022/01/13 08:00:04;;;;;;;71.32;39.90;;;;;;;;;;5127238;28;20023;-70
2022/01/13 08:02:30;;;;;;;29.35;25.88;;;;;;;;;;5126535;28;20118;-67
2022/01/13 08:04:55;;;;;;;30.30;17.80;;;;;;;;;;5127485;28;20098;-70
2022/01/13 08:07:20;;;;;;;22.10;19.20;;;;;;;;;;5126374;28;20502;-66
2022/01/13 08:09:46;;;;;;;34.33;24.50;;;;;;;;;;5127250;28;20075;-72
2022/01/13 08:12:11;;;;;;;39.08;29.35;;;;;;;;;;5127585;28;20068;-70
2022/01/13 08:14:36;;;;;;;30.48;26.95;;;;;;;;;;5127666;28;20015;-72
2022/01/13 08:17:03;;;;;;;33.45;24.40;;;;;;;;;;5124978;27;20019;-66
2022/01/13 08:19:46;;;;;;;39.72;26.58;;;;;;;;;;5123076;28;20501;-73
2022/01/13 08:22:15;;;;;;;48.45;30.10;;;;;;;;;;5075662;27;1446182;-67
2022/01/13 08:24:41;;;;;;;63.95;42.97;;;;;;;;;;5125745;27;20119;-68
2022/01/13 08:27:07;;;;;;;58.42;41.90;;;;;;;;;;5128020;27;20106;-68
2022/01/13 08:29:32;;;;;;;53.67;38.47;;;;;;;;;;5125730;27;20094;-67
2022/01/13 08:31:57;;;;;;;46.30;35.20;;;;;;;;;;5127838;27;20388;-68
2022/01/13 08:34:23;;;;;;;50.88;33.28;;;;;;;;;;5126409;27;20027;-67
2022/01/13 08:36:48;;;;;;;67.43;45.10;;;;;;;;;;5127687;27;20441;-64
2022/01/13 08:39:14;;;;;;;70.00;60.42;;;;;;;;;;5128236;27;20106;-67
2022/01/13 08:41:40;;;;;;;77.60;53.38;;;;;;;;;;5127870;27;20020;-67
2022/01/13 08:44:05;;;;;;;148.35;123.10;;;;;;;;;;5128100;27;20033;-67
2022/01/13 08:46:31;;;;;;;116.10;81.35;;;;;;;;;;5127804;27;20019;-65
2022/01/13 08:48:56;;;;;;;100.10;71.93;;;;;;;;;;5127371;27;20102;-66
2022/01/13 08:51:21;;;;;;;85.22;64.75;;;;;;;;;;5124647;27;20394;-66
2022/01/13 08:53:50;;;;;;;87.55;63.00;;;;;;;;;;5125537;27;20087;-67
2022/01/13 08:56:15;;;;;;;106.13;80.28;;;;;;;;;;5124282;27;20126;-67
2022/01/13 08:58:41;;;;;;;112.15;84.78;;;;;;;;;;5123969;27;20550;-66
2022/01/13 09:01:07;;;;;;;64.78;52.53;;;;;;;;;;5125705;27;20104;-67
2022/01/13 09:03:33;;;;;;;91.00;65.93;;;;;;;;;;5126092;27;20027;-67
2022/01/13 09:05:58;;;;;;;84.03;69.28;;;;;;;;;;5125303;27;20064;-67
2022/01/13 09:08:23;;;;;;;85.15;72.22;;;;;;;;;;5125527;27;20612;-67
2022/01/13 09:10:48;;;;;;;96.85;70.70;;;;;;;;;;5124694;27;20481;-65
2022/01/13 09:13:15;;;;;;;96.00;70.35;;;;;;;;;;5125321;27;20021;-65
2022/01/13 09:15:45;;;;;;;92.13;68.55;;;;;;;;;;5124978;27;20015;-66
2022/01/13 09:18:16;;;;;;;93.20;70.38;;;;;;;;;;5122447;27;20095;-66
2022/01/13 09:20:42;;;;;;;54.00;41.50;;;;;;;;;;5123571;27;20137;-66
2022/01/13 09:23:08;;;;;;;62.05;40.40;;;;;;;;;;5125492;27;20896;-66
2022/01/13 09:25:35;;;;;;;69.47;51.33;;;;;;;;;;5125272;27;20688;-66
2022/01/13 09:28:04;;;;;;;87.95;65.93;;;;;;;;;;5122969;27;20110;-65
2022/01/13 09:30:30;;;;;;;77.50;58.60;;;;;;;;;;5124272;27;20055;-67
2022/01/13 09:32:55;;;;;;;82.00;50.95;;;;;;;;;;5125657;27;20065;-67
2022/01/13 09:35:21;;;;;;;68.07;51.67;;;;;;;;;;5125289;27;20485;-67
2022/01/13 09:37:47;;;;;;;69.20;39.78;;;;;;;;;;5125162;27;20079;-67
2022/01/13 09:40:12;;;;;;;70.93;52.72;;;;;;;;;;5124933;27;20031;-68
2022/01/13 09:42:40;;;;;;;69.57;44.83;;;;;;;;;;5125798;27;20019;-68
2022/01/13 09:45:06;;;;;;;59.13;48.42;;;;;;;;;;5124712;27;20019;-65
2022/01/13 09:47:32;;;;;;;57.38;39.22;;;;;;;;;;5127362;27;20087;-63
2022/01/13 09:49:57;;;;;;;31.67;23.00;;;;;;;;;;5127683;27;20921;-63
2022/01/13 09:52:25;;;;;;;24.50;19.98;;;;;;;;;;5127647;27;20027;-63
2022/01/13 09:54:51;;;;;;;29.60;23.80;;;;;;;;;;5126680;27;20030;-68
2022/01/13 09:57:16;;;;;;;33.70;26.33;;;;;;;;;;5126745;27;20023;-67
2022/01/13 09:59:44;;;;;;;47.92;36.45;;;;;;;;;;5125130;27;20108;-66
2022/01/13 10:02:10;;;;;;;57.47;42.53;;;;;;;;;;5126867;27;20019;-64
2022/01/13 10:04:46;;;;;;;48.60;28.00;;;;;;;;;;5126996;27;20466;-67
2022/01/13 10:07:13;;;;;;;37.10;27.23;;;;;;;;;;5125234;27;20091;-66
2022/01/13 10:09:52;;;;;;;28.73;21.10;;;;;;;;;;5125384;27;20015;-66
2022/01/13 10:12:22;;;;;;;22.27;18.15;;;;;;;;;;5126260;27;20027;-66
2022/01/13 10:17:22;;;;;;;15.52;13.63;;;;;;;;;;5123197;28;20501;-66
2022/01/13 10:19:49;;;;;;;20.08;11.75;;;;;;;;;;5126854;28;20043;-67
2022/01/13 10:22:21;;;;;;;23.30;10.80;;;;;;;;;;5127091;28;20047;-67
2022/01/13 10:24:47;;;;;;;14.63;12.60;;;;;;;;;;5126689;28;20165;-67
2022/01/13 10:27:12;;;;;;;21.27;12.45;;;;;;;;;;5127000;28;20023;-73
2022/01/13 10:29:41;;;;;;;16.05;10.77;;;;;;;;;;5123192;27;20127;-68
2022/01/13 10:32:07;;;;;;;12.43;9.43;;;;;;;;;;5125582;28;20015;-67
2022/01/13 10:34:35;;;;;;;39.08;34.80;;;;;;;;;;5126252;28;20046;-68
2022/01/13 10:37:00;;;;;;;25.05;19.05;;;;;;;;;;5125511;28;20489;-67
2022/01/13 10:39:45;;;;;;;13.57;10.98;;;;;;;;;;5126524;28;20030;-67
2022/01/13 10:44:54;;;;;;;17.23;12.52;;;;;;;;;;5123937;28;20027;-67
2022/01/13 10:47:20;;;;;;;18.55;11.45;;;;;;;;;;5108055;28;20578;-67
2022/01/13 10:49:50;;;;;;;23.25;16.58;;;;;;;;;;5126610;27;20035;-67
2022/01/13 10:52:28;;;;;;;32.55;25.58;;;;;;;;;;5126110;28;20020;-66
2022/01/13 10:54:55;;;;;;;20.52;15.30;;;;;;;;;;5123389;28;20015;-67
2022/01/13 10:57:24;;;;;;;28.23;15.70;;;;;;;;;;5124850;28;20026;-66
2022/01/13 10:59:49;;;;;;;62.85;46.10;;;;;;;;;;5124728;28;20502;-67
2022/01/13 11:02:15;;;;;;;17.35;10.20;;;;;;;;;;5126328;28;20068;-67
2022/01/13 11:04:40;;;;;;;15.43;10.25;;;;;;;;;;5125159;28;20525;-66
2022/01/13 11:07:12;;;;;;;11.38;6.50;;;;;;;;;;5125211;28;20028;-66
2022/01/13 11:09:42;;;;;;;16.40;9.45;;;;;;;;;;5125571;28;20015;-63
2022/01/13 11:12:07;;;;;;;22.83;9.65;;;;;;;;;;5124588;28;20042;-62
2022/01/13 11:14:40;;;;;;;25.35;15.27;;;;;;;;;;5129070;27;20019;-62
2022/01/13 11:17:06;;;;;;;14.15;9.38;;;;;;;;;;5128201;27;20118;-63
2022/01/13 11:19:31;;;;;;;19.38;9.23;;;;;;;;;;5130224;27;20118;-63
2022/01/13 11:21:57;;;;;;;15.43;7.80;;;;;;;;;;5129669;27;20488;-62
2022/01/13 11:24:23;;;;;;;25.60;11.63;;;;;;;;;;5129311;27;20521;-62
2022/01/13 11:26:49;;;;;;;17.45;11.63;;;;;;;;;;5129116;27;20015;-63
2022/01/13 11:29:16;;;;;;;9.88;6.15;;;;;;;;;;5127215;27;20030;-63
2022/01/13 11:31:42;;;;;;;10.52;6.88;;;;;;;;;;5129668;27;20031;-63
2022/01/13 11:34:08;;;;;;;6.47;5.55;;;;;;;;;;5129488;27;20075;-63
2022/01/13 11:36:34;;;;;;;8.25;4.00;;;;;;;;;;5127894;27;20015;-64
2022/01/13 11:39:00;;;;;;;12.07;6.57;;;;;;;;;;5128562;27;20023;-63
2022/01/13 11:41:26;;;;;;;11.32;6.70;;;;;;;;;;5129304;27;20542;-63
2022/01/13 11:43:52;;;;;;;5.95;4.72;;;;;;;;;;5129229;27;20027;-63
2022/01/13 11:46:21;;;;;;;13.45;5.75;;;;;;;;;;5129957;27;20020;-65
2022/01/13 11:48:59;;;;;;;5.20;2.80;;;;;;;;;;5128334;27;20033;-64
2022/01/13 11:51:28;;;;;;;4.22;3.25;;;;;;;;;;5128511;27;20023;-64
2022/01/13 11:53:55;;;;;;;11.18;4.78;;;;;;;;;;5129278;27;20486;-64
2022/01/13 11:56:22;;;;;;;5.03;3.70;;;;;;;;;;5129318;27;20023;-63
2022/01/13 11:58:47;;;;;;;11.45;4.00;;;;;;;;;;5128491;27;20022;-63
2022/01/13 12:01:17;;;;;;;14.07;4.32;;;;;;;;;;5128083;27;20050;-65
2022/01/13 12:03:43;;;;;;;12.02;9.32;;;;;;;;;;5127916;27;20090;-65
2022/01/13 12:06:21;;;;;;;5.82;3.28;;;;;;;;;;5127982;27;20664;-64
2022/01/13 12:08:51;;;;;;;3.35;2.58;;;;;;;;;;5127245;27;20031;-63
2022/01/13 12:11:37;;;;;;;7.60;3.85;;;;;;;;;;5123821;27;20007;-64
2022/01/13 12:14:03;;;;;;;5.57;3.28;;;;;;;;;;5127468;27;20469;-65
2022/01/13 12:16:52;;;;;;;8.15;4.43;;;;;;;;;;5129160;27;20098;-64
2022/01/13 12:19:37;;;;;;;12.13;5.00;;;;;;;;;;5113822;27;20055;-64
2022/01/13 12:22:10;;;;;;;5.82;3.88;;;;;;;;;;5126078;27;20136;-64
2022/01/13 12:24:56;;;;;;;7.55;3.22;;;;;;;;;;5126090;27;20038;-63
2022/01/13 12:27:42;;;;;;;6.55;4.72;;;;;;;;;;5127619;27;20048;-64
2022/01/13 12:30:10;;;;;;;10.57;4.97;;;;;;;;;;5125109;27;20212;-64
2022/01/13 12:32:47;;;;;;;14.07;4.13;;;;;;;;;;5128431;27;20747;-64
2022/01/13 12:35:28;;;;;;;8.73;7.72;;;;;;;;;;5128705;27;20030;-66
2022/01/13 12:37:54;;;;;;;;;;;;;;;;;;5128158;27;20015;-65
2022/01/13 12:40:19;;;;;;;22.77;7.10;;;;;;;;;;5128585;27;20398;-71
2022/01/13 12:42:52;;;;;;;42.13;32.95;;;;;;;;;;5128608;27;20054;-66
2022/01/13 12:45:29;;;;;;;7.15;6.45;;;;;;;;;;5110774;27;20053;-63
2022/01/13 12:48:02;;;;;;;7.35;4.53;;;;;;;;;;5109451;27;20023;-64
2022/01/13 12:50:29;;;;;;;15.35;8.57;;;;;;;;;;5128014;27;20023;-64
2022/01/13 12:53:08;;;;;;;6.20;5.43;;;;;;;;;;5128210;27;20045;-64
2022/01/13 12:55:34;;;;;;;11.70;5.25;;;;;;;;;;5128106;27;20115;-64
2022/01/13 12:57:59;;;;;;;19.52;12.68;;;;;;;;;;5126857;27;20098;-64
2022/01/13 13:00:25;;;;;;;15.65;11.70;;;;;;;;;;5125654;27;20106;-65
2022/01/13 13:02:58;;;;;;;9.52;5.35;;;;;;;;;;5127284;27;20753;-65
2022/01/13 13:05:30;;;;;;;13.52;12.13;;;;;;;;;;5126965;27;20390;-64
2022/01/13 13:07:56;;;;;;;8.55;2.90;;;;;;;;;;5126646;27;20650;-64
2022/01/13 13:10:21;;;;;;;18.25;7.55;;;;;;;;;;5108273;27;20667;-64
2022/01/13 13:12:53;;;;;;;9.50;7.00;;;;;;;;;;5124649;27;20107;-64
2022/01/13 13:17:46;;;;;;;67.25;49.90;;;;;;;;;;5127309;27;20019;-66
2022/01/13 13:20:28;;;;;;;18.75;8.77;;;;;;;;;;5124066;27;20027;-71
2022/01/13 13:22:56;;;;;;;44.08;37.75;;;;;;;;;;5124874;27;20081;-64
2022/01/13 13:25:32;;;;;;;27.27;18.92;;;;;;;;;;5125073;27;20761;-72
2022/01/13 13:28:15;;;;;;;9.98;6.40;;;;;;;;;;5125845;27;20029;-68
2022/01/13 13:30:45;;;;;;;31.20;18.95;;;;;;;;;;5127067;27;20025;-69
2022/01/13 13:33:10;;;;;;;14.95;13.50;;;;;;;;;;5124888;27;20031;-62
2022/01/13 13:35:35;;;;;;;15.75;9.85;;;;;;;;;;5126034;27;20763;-70
2022/01/13 13:38:02;;;;;;;12.93;7.15;;;;;;;;;;5127222;27;20019;-71
2022/01/13 13:40:27;;;;;;;16.05;14.63;;;;;;;;;;5125390;27;20486;-66
2022/01/13 13:43:03;;;;;;;11.73;7.18;;;;;;;;;;5126656;27;20134;-69
2022/01/13 13:45:29;;;;;;;10.15;4.72;;;;;;;;;;5125456;27;20094;-69
2022/01/13 13:47:57;;;;;;;11.18;6.68;;;;;;;;;;5126791;27;20102;-71
2022/01/13 13:50:23;;;;;;;8.70;7.25;;;;;;;;;;5127336;27;20031;-68
2022/01/13 13:53:03;;;;;;;10.95;7.70;;;;;;;;;;5127481;27;20019;-69
2022/01/13 13:55:28;;;;;;;7.25;4.95;;;;;;;;;;5108557;27;20015;-68
2022/01/13 13:57:54;;;;;;;13.00;5.80;;;;;;;;;;5123968;27;20343;-69
2022/01/13 14:00:23;;;;;;;23.30;9.23;;;;;;;;;;5126848;27;20029;-64
2022/01/13 14:02:52;;;;;;;8.52;5.88;;;;;;;;;;5107652;27;20075;-67
2022/01/13 14:05:21;;;;;;;11.85;7.82;;;;;;;;;;5127270;27;20097;-67
2022/01/13 14:07:48;;;;;;;12.50;6.03;;;;;;;;;;5124383;27;20065;-65
2022/01/13 14:10:13;;;;;;;5.78;3.90;;;;;;;;;;5126647;27;20031;-63
2022/01/13 14:12:47;;;;;;;15.38;8.93;;;;;;;;;;5105221;27;20102;-68
2022/01/13 14:15:19;;;;;;;9.23;6.22;;;;;;;;;;5123658;27;20019;-73
2022/01/13 14:17:46;;;;;;;10.63;7.22;;;;;;;;;;5124546;28;20106;-74
2022/01/13 14:20:13;;;;;;;14.23;5.68;;;;;;;;;;5125507;28;20019;-72
2022/01/13 14:22:38;;;;;;;7.28;4.93;;;;;;;;;;5123355;28;20512;-73
2022/01/13 14:25:14;;;;;;;12.02;6.50;;;;;;;;;;5124369;28;20138;-73
2022/01/13 14:27:52;;;;;;;14.63;8.70;;;;;;;;;;5120049;28;20019;-73
2022/01/13 14:30:24;;;;;;;9.60;7.18;;;;;;;;;;5098212;28;20059;-75
2022/01/13 14:32:50;;;;;;;27.58;10.85;;;;;;;;;;5089931;28;20473;-70
2022/01/13 14:35:25;;;;;;;18.67;9.77;;;;;;;;;;5107169;28;20050;-73
2022/01/13 14:37:54;;;;;;;11.63;6.38;;;;;;;;;;5126184;28;20015;-73
2022/01/13 14:40:21;;;;;;;21.38;7.95;;;;;;;;;;5124730;28;20068;-73
2022/01/13 14:42:47;;;;;;;7.93;4.28;;;;;;;;;;5106643;28;20059;-70
2022/01/13 14:45:22;;;;;;;8.20;5.93;;;;;;;;;;5124886;28;20015;-74
2022/01/13 14:47:48;;;;;;;7.80;4.15;;;;;;;;;;5123429;27;20015;-71
2022/01/13 14:50:13;;;;;;;9.27;5.82;;;;;;;;;;5128335;27;20081;-67
2022/01/13 14:52:39;;;;;;;12.75;3.60;;;;;;;;;;5128812;27;20088;-67
2022/01/13 14:55:04;;;;;;;10.30;8.18;;;;;;;;;;5128979;27;20041;-65